Terminal Aerodrome Forecast
Issued by NWS Medford, OR

Home | Current Version | Previous Version | Text Only | Print | Product List | Glossary On
Versions: 1 2 3 4 5 6 7 8 9 10 11 12 13 14 15 16 17 18 19
000
FTUS46 KMFR 190712 AAB
TAFMFR
TAF AMD
KMFR 190712Z 1907/2006 00000KT 1/4SM FZFG OVC002
     FM191300 00000KT 1/4SM FZFG OVC001
     FM191800 00000KT 3SM BR BKN006
     FM191900 VRB03KT P6SM SCT060 BKN250=

USA.gov is the U.S. government's official web portal to all federal, state and local government web resources and services.